Dorena, Oregon
Current Conditions -  °F | °C
As of 12:54 AM on Wednesday 22 Oct 2014 (Local Time) from KEUG Reporting Station
Light Rain Light Rain  
Wind Chill: 55°   Ceiling: 4100
Heat Index: 55°   Visibility: 10mi
Dew Point: 51°   Wind: 6mph
Humidity: 86%   Direction: 190°S
Pressure: 29.87"   Gusts: NA
Location:  43.72°N, 122.86°W
Report Text: KEUG 220754Z AUTO 19005KT 10SM -RA OVC041 13/11 A2987 RMK AO2 RAE32B50 SLP115 P0000 T01280106 401780106
Loading
Personal Weather Stations






























Interactive Weather Map
Tropical Storm Tracking
New forecast layout! Learn more

10-Day Weather Forecast

Advertisements
Track Severe Weather on mobile